Punta Galea, Euskadi

latitud = 43° 22' 30''N | longitud = 003° 01' 10''W
90 metros sobre el nivel del mar | datos mensuales

Fecha, hora, temperatura, viento dirección y velocidad, humedad y presión.

  • 14-10-2018 19:00:00 | 14.00°C | Oeste |11.00 km/h | 80.00% | 999.70 hPa
  • 14-10-2018 18:00:00 | 13.40°C | Oeste |13.00 km/h | 86.00% | 999.30 hPa
  • 14-10-2018 17:00:00 | 13.10°C | Oeste |12.00 km/h | 92.00% | 999.30 hPa
  • 14-10-2018 16:00:00 | 12.70°C | Oeste |11.00 km/h | 93.00% | 999.30 hPa
  • 14-10-2018 15:00:00 | 13.10°C | Noroeste |12.00 km/h | 93.00% | 999.50 hPa
  • 14-10-2018 14:00:00 | 12.80°C | Noroeste |12.00 km/h | 96.00% | 998.70 hPa
  • 14-10-2018 13:00:00 | 12.50°C | Oeste |16.00 km/h | 96.00% | 998.20 hPa
  • 14-10-2018 12:00:00 | 12.70°C | Oeste |19.00 km/h | 95.00% | 997.40 hPa
  • 14-10-2018 11:00:00 | 13.50°C | Oeste |22.00 km/h | 95.00% | 996.20 hPa
  • 14-10-2018 10:00:00 | 13.80°C | Noroeste |23.00 km/h | 96.00% | 995.20 hPa
  • 14-10-2018 09:00:00 | 15.30°C | Noroeste |20.00 km/h | 96.00% | 993.40 hPa
  • 14-10-2018 08:00:00 | 14.70°C | Noroeste |17.00 km/h | 96.00% | 992.50 hPa
  • 14-10-2018 07:00:00 | 15.70°C | Noroeste |6.00 km/h | 95.00% | 992.30 hPa
  • 14-10-2018 06:00:00 | 16.10°C | Noroeste |2.00 km/h | 94.00% | 992.50 hPa
  • 14-10-2018 05:00:00 | 16.40°C | Oeste |10.00 km/h | 92.00% | 993.40 hPa
  • 14-10-2018 04:00:00 | 17.00°C | Noroeste |13.00 km/h | 90.00% | 994.20 hPa
  • 14-10-2018 03:00:00 | 22.40°C | Sudeste |8.00 km/h | 66.00% | 993.70 hPa
  • 14-10-2018 02:00:00 | 23.00°C | Sudeste |10.00 km/h | 63.00% | 994.60 hPa
  • 14-10-2018 01:00:00 | 23.60°C | Sur |14.00 km/h | 61.00% | 994.80 hPa
  • 14-10-2018 00:00:00 | 22.90°C | Sur |9.00 km/h | 64.00% | 995.40 hPa
  • 13-10-2018 23:00:00 | 23.40°C | Sudeste |10.00 km/h | 62.00% | 996.20 hPa
  • 13-10-2018 22:00:00 | 23.00°C | Sur |6.00 km/h | 61.00% | 997.60 hPa
  • 13-10-2018 21:00:00 | 23.90°C | Sudeste |6.00 km/h | 52.00% | 998.50 hPa
  • 13-10-2018 20:00:00 | 24.70°C | Sudeste |6.00 km/h | 47.00% | 999.00 hPa